Sunkist, California
Current Conditions -  °F | °C
As of 6:53 AM on Saturday 20 Dec 2014 (Local Time) from KFUL Reporting Station
Haze Haze  
Wind Chill: 50°   Ceiling: Unl
Heat Index: 50°   Visibility: 5mi
Dew Point: 46°   Wind: 0mph
Humidity: 86%   Direction: NA
Pressure: 30.17"   Gusts: NA
Location:  33.8393°N, 117.87°W
Report Text: KFUL 201453Z 00000KT 5SM BR CLR 10/08 A3017 RMK AO2 SLP216 T01000078 53010
Loading
Personal Weather Stations






























Interactive Weather Map New forecast layout! Learn more

10-Day Weather Forecast

Advertisements
Track Severe Weather on mobile